Time;durP1;ratioP1;P1;durP2;ratioP2;P2;SDS_P1;SDS_P2;PMS_P1;PMS_P2;Temp;Humidity;BMP_temperature;BMP_pressure;BME280_temperature;BME280_humidity;BME280_pressure;Samples;Min_cycle;Max_cycle;Signal;HPM_P1;HPM_P2
2023/03/17 00:03:28;;;;;;;8.05;3.15;;;;;;;-3.25;89.68;101856.72;10510923;28;20071;-78
2023/03/17 00:08:32;;;;;;;13.07;4.88;;;;;;;-3.30;89.24;101859.00;10519912;28;20429;-78
2023/03/17 00:13:34;;;;;;;13.43;5.25;;;;;;;-3.35;89.68;101856.81;10500922;28;20052;-79
2023/03/17 00:18:36;;;;;;;15.75;5.75;;;;;;;-3.24;89.63;101870.97;10519274;28;20048;-78
2023/03/17 00:23:39;;;;;;;11.43;4.78;;;;;;;-3.25;89.19;101875.50;10521038;28;20517;-77
2023/03/17 00:28:41;;;;;;;10.95;4.38;;;;;;;-3.21;89.07;101876.00;10478444;28;20391;-76
2023/03/17 00:33:45;;;;;;;13.57;5.28;;;;;;;-3.07;89.21;101880.78;10520028;28;20044;-79
2023/03/17 00:38:48;;;;;;;10.18;5.05;;;;;;;-3.14;88.66;101880.56;10497456;28;20096;-77
2023/03/17 00:43:50;;;;;;;13.27;6.07;;;;;;;-3.16;88.41;101887.09;10520910;28;20220;-77
2023/03/17 00:48:53;;;;;;;12.25;5.70;;;;;;;-3.27;88.38;101890.09;10494299;28;20056;-79
2023/03/17 00:53:56;;;;;;;11.10;4.90;;;;;;;-3.35;88.20;101898.91;10526934;28;20044;-78
2023/03/17 00:58:58;;;;;;;11.27;5.10;;;;;;;-3.44;88.36;101902.56;10518614;28;20046;-78
2023/03/17 01:04:01;;;;;;;9.98;4.20;;;;;;;-3.44;88.70;101908.78;10523274;28;20056;-77
2023/03/17 01:09:03;;;;;;;13.25;5.57;;;;;;;-3.50;88.60;101905.88;10478365;28;20068;-78
2023/03/17 01:14:06;;;;;;;23.33;8.73;;;;;;;-3.44;88.48;101908.78;10493906;28;20410;-78
2023/03/17 01:19:10;;;;;;;29.42;10.02;;;;;;;-3.50;88.49;101905.88;10515595;28;20044;-78
2023/03/17 01:24:13;;;;;;;22.52;8.50;;;;;;;-3.43;88.59;101904.25;10504445;28;20052;-79
2023/03/17 01:29:16;;;;;;;24.58;8.15;;;;;;;-3.45;87.98;101912.47;10493205;28;20049;-78
2023/03/17 01:34:18;;;;;;;15.88;6.32;;;;;;;-3.45;87.92;101919.69;10524098;28;20047;-78
2023/03/17 01:39:20;;;;;;;19.05;5.95;;;;;;;-3.54;87.99;101915.25;10482541;28;20382;-78
2023/03/17 01:44:24;;;;;;;14.25;5.63;;;;;;;-3.59;87.83;101917.56;10520797;28;20055;-79
2023/03/17 01:49:29;;;;;;;13.18;5.57;;;;;;;-3.61;87.45;101919.56;10502159;28;20044;-78
2023/03/17 01:54:44;;;;;;;15.23;5.43;;;;;;;-3.63;87.96;101926.94;10473728;28;20057;-79
2023/03/17 01:59:49;;;;;;;11.00;4.68;;;;;;;-3.62;87.80;101929.44;10490052;28;20044;-78
2023/03/17 02:04:52;;;;;;;9.05;4.30;;;;;;;-3.60;87.51;101940.88;10482363;28;20052;-78
2023/03/17 02:09:55;;;;;;;9.38;4.30;;;;;;;-3.57;87.65;101945.91;10520837;28;20057;-78
2023/03/17 02:14:58;;;;;;;7.88;3.83;;;;;;;-3.59;87.84;101950.59;10487072;28;20072;-78
2023/03/17 02:20:20;;;;;;;9.35;4.18;;;;;;;-3.63;87.35;101946.56;10499909;28;20148;-77
2023/03/17 02:25:23;;;;;;;7.65;3.15;;;;;;;-3.63;87.42;101943.88;10479773;28;20042;-76
2023/03/17 02:30:27;;;;;;;6.95;3.38;;;;;;;-3.55;87.24;101960.00;10510183;28;20044;-77
2023/03/17 02:35:30;;;;;;;8.43;3.58;;;;;;;-3.55;87.34;101962.69;10520926;28;20040;-78
2023/03/17 02:40:32;;;;;;;11.10;4.50;;;;;;;-3.56;87.22;101974.41;10507619;28;20413;-78
2023/03/17 02:45:34;;;;;;;9.10;3.95;;;;;;;-3.68;87.18;101973.81;10518931;28;20514;-77
2023/03/17 02:50:37;;;;;;;9.25;4.82;;;;;;;-3.72;87.04;101974.28;10501936;28;20041;-79
2023/03/17 02:55:40;;;;;;;8.98;4.18;;;;;;;-3.71;87.21;101981.34;10520340;28;20490;-78
2023/03/17 03:00:42;;;;;;;9.63;4.38;;;;;;;-3.69;87.52;101987.38;10519101;28;20071;-79
2023/03/17 03:05:44;;;;;;;12.40;4.90;;;;;;;-3.78;87.62;101985.66;10517018;28;20040;-79
2023/03/17 03:10:46;;;;;;;11.20;5.43;;;;;;;-3.85;87.34;101996.13;10508721;28;20475;-77
2023/03/17 03:15:48;;;;;;;8.60;4.63;;;;;;;-3.87;87.55;101992.75;10504078;28;20437;-78
2023/03/17 03:20:51;;;;;;;9.27;5.63;;;;;;;-3.92;87.45;102004.97;10518638;28;20052;-78
2023/03/17 03:25:53;;;;;;;11.00;6.45;;;;;;;-3.99;87.96;101996.69;10524880;28;20044;-78
2023/03/17 03:30:56;;;;;;;9.13;5.60;;;;;;;-4.03;87.75;102011.38;10530226;28;20049;-78
2023/03/17 03:35:58;;;;;;;9.57;5.63;;;;;;;-4.06;88.07;102015.19;10524130;28;20041;-79
2023/03/17 03:41:00;;;;;;;10.75;5.60;;;;;;;-4.10;88.15;102016.50;10531134;28;20051;-78
2023/03/17 03:46:03;;;;;;;13.07;6.43;;;;;;;-4.15;88.93;102021.50;10497712;28;20051;-78
2023/03/17 03:51:05;;;;;;;9.10;5.18;;;;;;;-4.18;88.21;102023.59;10518888;28;20051;-80
2023/03/17 03:56:07;;;;;;;8.93;4.47;;;;;;;-4.16;88.58;102030.53;10499035;28;20041;-78
2023/03/17 04:01:10;;;;;;;8.30;4.60;;;;;;;-4.15;88.66;102023.31;10516243;28;20043;-79
2023/03/17 04:06:12;;;;;;;7.10;4.65;;;;;;;-4.12;88.42;102039.94;10528849;28;20510;-79
2023/03/17 04:11:14;;;;;;;8.70;4.55;;;;;;;-4.09;88.26;102044.16;10512469;28;20056;-81
2023/03/17 04:16:16;;;;;;;10.27;4.90;;;;;;;-4.04;88.38;102052.56;10518995;28;20036;-78
2023/03/17 04:21:21;;;;;;;7.88;4.25;;;;;;;-4.02;88.24;102051.44;10494752;28;20035;-79
2023/03/17 04:26:23;;;;;;;9.40;5.00;;;;;;;-3.98;88.23;102052.00;10522289;28;20044;-78
2023/03/17 04:31:26;;;;;;;7.70;3.92;;;;;;;-3.63;87.77;102044.97;10526425;28;20064;-78
2023/03/17 04:36:28;;;;;;;8.07;4.80;;;;;;;-2.97;86.99;102047.97;10525733;28;20048;-78
2023/03/17 04:41:30;;;;;;;7.15;4.13;;;;;;;-2.31;85.23;102047.31;10499282;28;20060;-79
2023/03/17 04:46:33;;;;;;;7.65;4.32;;;;;;;-1.59;82.14;102067.31;10509799;28;20044;-79
2023/03/17 04:51:35;;;;;;;7.15;4.00;;;;;;;-1.08;79.15;102068.00;10520958;28;20056;-79
2023/03/17 04:56:38;;;;;;;7.00;3.92;;;;;;;-0.46;76.22;102072.78;10524104;28;20045;-78
2023/03/17 05:01:40;;;;;;;7.28;4.18;;;;;;;0.05;74.37;102079.47;10527241;28;20067;-79
2023/03/17 05:06:42;;;;;;;8.40;4.90;;;;;;;0.50;71.88;102085.94;10525969;28;20040;-79
2023/03/17 05:11:45;;;;;;;9.23;4.43;;;;;;;0.97;70.33;102083.03;10502050;28;20060;-79
2023/03/17 05:16:47;;;;;;;7.68;4.40;;;;;;;1.32;68.84;102086.09;10507153;28;20044;-79
2023/03/17 05:21:50;;;;;;;7.78;4.80;;;;;;;1.56;68.08;102101.19;10521149;28;20070;-79
2023/03/17 05:26:52;;;;;;;8.25;4.30;;;;;;;1.76;66.50;102110.47;10505438;28;20543;-79
2023/03/17 05:31:54;;;;;;;8.13;4.22;;;;;;;2.37;65.20;102108.31;10529528;28;20390;-78
2023/03/17 05:36:56;;;;;;;5.88;3.95;;;;;;;2.61;63.69;102112.53;10503623;28;20045;-80
2023/03/17 05:41:59;;;;;;;11.38;3.58;;;;;;;2.77;61.15;102112.25;10507193;28;20529;-79
2023/03/17 05:47:01;;;;;;;7.07;3.80;;;;;;;3.00;60.70;102122.94;10529136;28;20682;-79
2023/03/17 05:52:03;;;;;;;5.78;3.00;;;;;;;3.28;59.79;102123.78;10523882;28;20045;-80
2023/03/17 05:57:06;;;;;;;6.93;3.53;;;;;;;3.53;58.79;102126.91;10511078;28;20040;-80
2023/03/17 06:02:10;;;;;;;8.43;3.65;;;;;;;3.74;57.47;102126.00;10490858;28;20036;-80
2023/03/17 06:07:12;;;;;;;4.18;3.10;;;;;;;4.08;56.72;102132.44;10500831;28;20052;-79
2023/03/17 06:12:14;;;;;;;6.85;3.38;;;;;;;4.28;56.02;102137.97;10491493;28;20402;-79
2023/03/17 06:17:17;;;;;;;6.38;3.30;;;;;;;4.40;55.42;102131.75;10490144;28;20048;-80
2023/03/17 06:22:19;;;;;;;5.13;2.92;;;;;;;4.28;55.30;102124.38;10498881;28;20051;-78
2023/03/17 06:27:21;;;;;;;3.97;2.95;;;;;;;4.77;54.02;102126.81;10522382;28;20036;-80
2023/03/17 06:32:23;;;;;;;8.38;3.22;;;;;;;5.41;52.57;102137.13;10469022;28;20045;-79
2023/03/17 06:37:26;;;;;;;4.13;2.38;;;;;;;5.64;50.68;102134.78;10469158;28;20344;-78
2023/03/17 06:42:28;;;;;;;6.20;2.90;;;;;;;5.91;49.12;102134.78;10486472;28;20502;-80
2023/03/17 06:47:30;;;;;;;3.53;2.60;;;;;;;5.98;47.24;102143.75;10515773;28;20044;-80
2023/03/17 06:52:33;;;;;;;3.35;2.20;;;;;;;6.42;45.77;102139.38;10527599;28;20060;-80
2023/03/17 06:57:35;;;;;;;3.67;2.08;;;;;;;6.64;44.09;102154.41;10527327;28;20036;-78
2023/03/17 07:02:37;;;;;;;3.17;2.00;;;;;;;7.00;42.81;102158.38;10491282;28;20041;-79
2023/03/17 07:07:40;;;;;;;3.35;2.00;;;;;;;7.40;42.45;102165.22;10494117;28;20049;-80
2023/03/17 07:12:42;;;;;;;2.60;1.90;;;;;;;7.74;41.31;102158.41;10523216;28;20520;-80
2023/03/17 07:17:45;;;;;;;2.35;1.60;;;;;;;7.72;40.29;102176.06;10521181;28;20047;-80
2023/03/17 07:22:48;;;;;;;3.22;1.50;;;;;;;7.51;39.80;102180.06;10533747;28;20057;-79
2023/03/17 07:27:50;;;;;;;2.90;1.50;;;;;;;7.40;39.53;102181.59;10474060;28;20166;-80
2023/03/17 07:32:53;;;;;;;4.82;1.77;;;;;;;7.84;39.28;102177.03;10508971;28;20063;-81
2023/03/17 07:37:56;;;;;;;2.33;1.48;;;;;;;8.35;38.69;102186.81;10497888;28;20045;-79
2023/03/17 07:42:58;;;;;;;10.63;1.83;;;;;;;8.49;38.08;102192.94;10516514;28;20044;-79
2023/03/17 07:48:03;;;;;;;3.08;1.70;;;;;;;8.69;37.97;102190.81;10525903;28;20051;-80
2023/03/17 07:53:06;;;;;;;3.85;1.70;;;;;;;8.92;36.95;102201.00;10478139;28;20045;-80
2023/03/17 07:58:08;;;;;;;4.00;1.90;;;;;;;9.01;35.96;102214.13;10500149;28;20155;-80
2023/03/17 08:03:11;;;;;;;2.78;1.38;;;;;;;9.20;35.73;102208.59;10488256;28;20049;-80
2023/03/17 08:08:14;;;;;;;5.60;2.08;;;;;;;9.43;35.61;102216.06;10486930;28;20051;-79
2023/03/17 08:13:17;;;;;;;8.13;1.75;;;;;;;8.76;35.08;102213.44;10527145;28;20048;-81
2023/03/17 08:18:19;;;;;;;2.90;1.42;;;;;;;9.27;33.65;102217.56;10533443;28;20047;-80
2023/03/17 08:23:22;;;;;;;2.70;1.08;;;;;;;9.53;33.28;102216.28;10532659;28;20036;-81
2023/03/17 08:28:24;;;;;;;3.47;1.40;;;;;;;9.64;32.02;102218.22;10513961;28;20409;-82
2023/03/17 08:33:26;;;;;;;3.58;1.85;;;;;;;9.87;32.22;102218.25;10523259;28;20047;-81
2023/03/17 08:38:28;;;;;;;1.70;1.42;;;;;;;9.95;30.96;102226.13;10521065;28;20424;-80
2023/03/17 08:43:31;;;;;;;3.95;1.55;;;;;;;10.19;31.08;102226.94;10531504;28;20033;-81
2023/03/17 08:48:34;;;;;;;5.00;1.40;;;;;;;9.66;30.68;102230.63;10531616;28;20044;-81
2023/03/17 08:53:36;;;;;;;3.13;1.17;;;;;;;9.15;31.60;102219.41;10503515;28;20052;-80
2023/03/17 08:58:39;;;;;;;3.05;1.17;;;;;;;8.97;31.79;102229.34;10495738;28;20044;-81
2023/03/17 09:03:42;;;;;;;3.75;1.45;;;;;;;8.70;32.93;102231.63;10524468;28;20448;-81
2023/03/17 09:08:46;;;;;;;2.53;1.48;;;;;;;8.03;33.68;102236.13;10502453;28;20068;-81
2023/03/17 09:13:48;;;;;;;4.95;1.35;;;;;;;7.36;36.30;102232.25;10491972;28;20144;-79
2023/03/17 09:18:50;;;;;;;3.47;1.33;;;;;;;6.70;37.52;102232.63;10527909;28;20037;-81
2023/03/17 09:23:52;;;;;;;4.57;1.55;;;;;;;6.31;38.42;102236.34;10494642;28;20052;-79
2023/03/17 09:28:55;;;;;;;1.70;1.15;;;;;;;5.87;40.09;102220.66;10521031;28;20052;-81
2023/03/17 09:33:57;;;;;;;4.60;1.58;;;;;;;5.44;40.68;102231.97;10522021;28;20036;-81
2023/03/17 09:39:00;;;;;;;6.32;1.63;;;;;;;5.36;40.55;102237.63;10497253;28;20040;-83
2023/03/17 09:44:39;;;;;;;7.60;1.30;;;;;;;4.92;42.76;102232.72;10471061;28;20040;-84
2023/03/17 09:49:47;;;;;;;3.83;1.40;;;;;;;4.75;43.54;102238.53;10469161;28;20028;-83
2023/03/17 09:54:49;;;;;;;2.90;1.20;;;;;;;4.69;43.36;102239.34;10484361;28;20544;-82
2023/03/17 10:00:06;;;;;;;3.33;1.48;;;;;;;4.44;44.73;102241.72;10470662;28;20033;-83
2023/03/17 10:05:26;;;;;;;1.58;1.10;;;;;;;4.67;45.38;102243.28;10476498;28;20199;-80
2023/03/17 10:10:36;;;;;;;2.45;1.38;;;;;;;4.58;45.88;102249.94;10488115;28;20111;-79
2023/03/17 10:15:53;;;;;;;1.20;1.00;;;;;;;4.54;46.65;102241.38;10488180;28;20059;-83
2023/03/17 10:20:59;;;;;;;1.95;1.10;;;;;;;4.68;46.85;102247.69;10509361;28;20385;-83
2023/03/17 10:26:08;;;;;;;2.78;1.10;;;;;;;4.55;47.15;102251.19;10479543;28;20041;-82
2023/03/17 10:31:18;;;;;;;2.42;1.15;;;;;;;4.45;48.21;102243.41;10513805;28;20040;-82
2023/03/17 10:36:38;;;;;;;2.38;1.10;;;;;;;4.43;47.74;102261.78;10476435;28;20509;-83
2023/03/17 10:41:51;;;;;;;2.50;1.27;;;;;;;4.27;47.29;102253.97;10510733;28;20036;-83
2023/03/17 10:46:55;;;;;;;2.13;1.00;;;;;;;4.30;48.23;102250.00;10454197;28;20036;-82
2023/03/17 10:51:57;;;;;;;5.22;0.85;;;;;;;4.42;47.38;102259.28;10482926;28;20502;-76
2023/03/17 10:57:02;;;;;;;1.95;1.00;;;;;;;4.32;47.21;102256.91;10502437;28;20040;-79
2023/03/17 11:02:13;;;;;;;1.65;0.82;;;;;;;4.33;47.49;102260.47;10483835;28;20515;-79
2023/03/17 11:07:18;;;;;;;2.67;0.80;;;;;;;4.37;47.73;102268.03;10496494;28;20045;-82
2023/03/17 11:12:33;;;;;;;2.53;0.95;;;;;;;4.50;46.90;102267.25;10499548;28;20052;-79
2023/03/17 11:17:55;;;;;;;1.75;0.90;;;;;;;4.56;47.38;102255.59;10485985;28;20052;-79
2023/03/17 11:23:05;;;;;;;1.75;0.80;;;;;;;4.33;47.26;102264.03;10476366;28;20053;-79
2023/03/17 11:28:18;;;;;;;2.80;1.33;;;;;;;4.40;46.52;102262.19;10497213;28;20513;-81
2023/03/17 11:33:47;;;;;;;1.38;0.95;;;;;;;4.52;47.42;102249.72;10487523;28;20040;-83
2023/03/17 11:39:06;;;;;;;2.15;1.30;;;;;;;4.73;46.81;102256.94;10520162;28;20041;-85
2023/03/17 11:44:15;;;;;;;2.58;1.40;;;;;;;4.71;46.29;102250.00;10486576;28;20110;-84
2023/03/17 11:49:19;;;;;;;1.75;1.27;;;;;;;4.58;46.27;102247.22;10481866;28;20045;-84
2023/03/17 11:54:59;;;;;;;2.97;1.10;;;;;;;4.36;45.82;102250.06;10484291;28;20044;-82
2023/03/17 12:00:15;;;;;;;3.13;1.27;;;;;;;4.30;45.12;102256.28;10531703;28;20040;-81
2023/03/17 12:05:25;;;;;;;4.60;1.42;;;;;;;4.69;45.57;102244.78;10525205;28;20036;-81
2023/03/17 12:10:36;;;;;;;2.72;1.88;;;;;;;4.81;45.55;102234.13;10533806;28;20055;-81
2023/03/17 12:15:46;;;;;;;2.75;1.63;;;;;;;4.37;46.15;102227.28;10532750;28;20037;-79
2023/03/17 12:20:53;;;;;;;4.53;1.85;;;;;;;4.52;46.30;102227.16;10515316;28;20516;-80
2023/03/17 12:26:05;;;;;;;3.90;1.50;;;;;;;4.72;45.30;102232.66;10498528;28;20052;-81
2023/03/17 12:31:46;;;;;;;3.03;2.30;;;;;;;5.14;44.51;102224.19;10498783;28;20531;-82
2023/03/17 12:36:49;;;;;;;3.08;1.58;;;;;;;4.78;44.17;102231.84;10494006;28;20123;-81
2023/03/17 12:42:18;;;;;;;3.25;1.30;;;;;;;4.64;43.76;102225.50;10523399;28;20545;-78
2023/03/17 12:47:51;;;;;;;1.95;1.10;;;;;;;4.48;43.15;102226.69;10515621;28;20524;-80
2023/03/17 12:53:08;;;;;;;1.88;1.08;;;;;;;4.28;43.36;102235.78;10495767;28;20036;-79
2023/03/17 12:58:36;;;;;;;2.23;1.20;;;;;;;4.48;42.32;102223.97;10493066;28;20040;-82
2023/03/17 13:04:01;;;;;;;2.30;1.05;;;;;;;4.47;42.50;102225.00;10498149;28;20049;-83
2023/03/17 13:09:26;;;;;;;1.33;0.80;;;;;;;4.63;42.07;102231.13;10519243;28;20036;-80
2023/03/17 13:14:38;;;;;;;2.50;1.10;;;;;;;4.90;41.20;102224.78;10522639;28;20043;-81
2023/03/17 13:20:06;;;;;;;2.22;1.50;;;;;;;4.70;40.84;102226.59;10499396;28;20059;-79
2023/03/17 13:25:26;;;;;;;2.45;1.10;;;;;;;4.64;40.75;102230.09;10528102;28;20536;-78
2023/03/17 13:30:34;;;;;;;0.98;0.90;;;;;;;4.64;41.36;102221.94;10528194;28;20044;-80
2023/03/17 13:35:57;;;;;;;;;;;;;;;4.69;41.99;102228.47;10500192;28;20043;-79
2023/03/17 13:41:17;;;;;;;3.50;1.65;;;;;;;4.42;42.04;102235.66;10480104;28;19920;-81
2023/03/17 13:46:36;;;;;;;4.32;1.65;;;;;;;4.15;41.53;102233.81;10506195;28;20032;-81
2023/03/17 13:51:40;;;;;;;5.78;1.65;;;;;;;4.25;43.51;102231.59;10492065;28;20033;-81
2023/03/17 13:56:42;;;;;;;2.08;1.23;;;;;;;4.48;43.10;102229.41;10508534;28;20417;-81
2023/03/17 14:01:55;;;;;;;4.30;1.70;;;;;;;4.21;42.55;102225.72;10510355;28;20498;-78
2023/03/17 14:06:59;;;;;;;3.72;1.75;;;;;;;4.29;43.39;102232.84;10528245;28;20040;-79
2023/03/17 14:12:09;;;;;;;1.50;1.40;;;;;;;4.17;42.03;102229.03;10506510;28;20044;-78
2023/03/17 14:17:14;;;;;;;3.70;1.45;;;;;;;4.01;41.49;102224.75;10528812;28;20055;-78
2023/03/17 14:22:25;;;;;;;3.30;1.40;;;;;;;4.01;41.29;102224.75;10520361;28;20136;-78
2023/03/17 14:27:29;;;;;;;1.85;0.90;;;;;;;4.20;42.38;102223.22;10507368;28;20045;-81
2023/03/17 14:32:31;;;;;;;1.90;1.20;;;;;;;4.27;40.27;102213.19;10511988;28;20415;-78
2023/03/17 14:37:36;;;;;;;1.55;1.20;;;;;;;4.24;41.20;102208.19;10522413;28;20717;-82
2023/03/17 14:42:38;;;;;;;2.78;1.25;;;;;;;4.45;40.51;102215.38;10492779;28;20037;-80
2023/03/17 14:47:42;;;;;;;2.00;1.13;;;;;;;4.41;39.34;102206.81;10506074;28;20044;-80
2023/03/17 14:52:44;;;;;;;2.45;1.17;;;;;;;4.33;39.68;102216.97;10466188;28;20056;-80
2023/03/17 14:57:50;;;;;;;2.15;1.20;;;;;;;4.35;40.70;102213.06;10499385;28;20135;-80
2023/03/17 15:02:54;;;;;;;2.45;0.88;;;;;;;4.35;41.09;102223.91;10492147;28;20056;-81
2023/03/17 15:07:56;;;;;;;2.67;1.30;;;;;;;4.35;40.23;102221.19;10507948;28;20048;-80
2023/03/17 15:13:00;;;;;;;2.00;1.10;;;;;;;4.49;40.20;102224.81;10504594;28;20489;-79
2023/03/17 15:18:08;;;;;;;1.77;0.90;;;;;;;4.41;39.49;102227.69;10499352;28;20036;-78
2023/03/17 15:23:29;;;;;;;;;;;;;;;4.27;39.82;102225.94;10506372;28;20052;-78
2023/03/17 15:28:32;;;;;;;4.32;1.25;;;;;;;4.21;39.92;102214.00;10492657;28;19917;-82
2023/03/17 15:33:36;;;;;;;3.40;1.25;;;;;;;4.04;39.57;102232.50;10504973;28;20036;-82
2023/03/17 15:38:39;;;;;;;2.72;1.20;;;;;;;4.10;40.95;102231.69;10496906;28;20448;-82
2023/03/17 15:43:41;;;;;;;1.70;1.20;;;;;;;4.13;39.20;102227.75;10498786;28;20540;-80
2023/03/17 15:48:43;;;;;;;2.38;1.33;;;;;;;3.96;39.52;102226.38;10513212;28;20044;-79
2023/03/17 15:53:46;;;;;;;2.47;1.27;;;;;;;3.92;40.23;102231.38;10533552;28;20036;-78
2023/03/17 15:58:51;;;;;;;2.20;1.30;;;;;;;3.89;40.61;102235.34;10524468;28;20063;-80
2023/03/17 16:03:53;;;;;;;1.73;1.00;;;;;;;4.01;40.43;102234.78;10527825;28;20040;-81
2023/03/17 16:08:55;;;;;;;4.25;1.13;;;;;;;4.00;40.22;102243.97;10528429;28;20047;-80
2023/03/17 16:13:58;;;;;;;5.75;1.63;;;;;;;4.10;40.47;102237.13;10481645;28;20036;-80
2023/03/17 16:19:01;;;;;;;3.25;1.20;;;;;;;4.05;40.01;102250.47;10492737;28;20039;-80
2023/03/17 16:24:04;;;;;;;3.35;1.20;;;;;;;3.92;40.45;102245.78;10478424;28;20055;-81
2023/03/17 16:29:12;;;;;;;3.70;1.48;;;;;;;3.70;39.99;102256.91;10519423;28;20048;-80
2023/03/17 16:34:19;;;;;;;2.55;1.70;;;;;;;3.53;40.48;102261.75;10485526;28;20055;-80
2023/03/17 16:39:22;;;;;;;3.35;1.70;;;;;;;3.16;39.94;102252.84;10507421;28;20071;-80
2023/03/17 16:44:25;;;;;;;7.30;1.40;;;;;;;2.98;40.51;102250.56;10482527;28;20422;-81
2023/03/17 16:49:28;;;;;;;5.68;1.30;;;;;;;2.77;41.24;102247.78;10469980;28;20040;-80
2023/03/17 16:54:32;;;;;;;4.40;1.15;;;;;;;2.73;41.33;102257.34;10525978;28;20047;-83
2023/03/17 16:59:34;;;;;;;2.53;1.40;;;;;;;2.95;41.12;102247.38;10484425;28;20043;-81
2023/03/17 17:04:40;;;;;;;6.10;1.40;;;;;;;2.97;41.38;102248.91;10487977;28;20134;-82
2023/03/17 17:09:45;;;;;;;5.45;1.40;;;;;;;2.84;41.32;102242.47;10490440;28;20501;-81
2023/03/17 17:14:47;;;;;;;5.82;2.10;;;;;;;2.61;41.30;102229.91;10501012;28;20032;-81
2023/03/17 17:19:50;;;;;;;7.60;2.65;;;;;;;2.57;41.68;102235.88;10475750;28;20047;-83
2023/03/17 17:24:56;;;;;;;8.20;2.47;;;;;;;2.53;41.50;102248.97;10474933;28;20054;-81
2023/03/17 17:29:59;;;;;;;7.15;2.45;;;;;;;2.34;42.19;102244.13;10493861;28;20044;-82
2023/03/17 17:35:06;;;;;;;6.18;2.30;;;;;;;2.27;41.30;102257.59;10494436;28;20075;-82
2023/03/17 17:40:14;;;;;;;6.32;2.10;;;;;;;2.22;41.63;102259.16;10460881;28;20032;-82
2023/03/17 17:45:19;;;;;;;4.32;2.10;;;;;;;2.15;41.73;102253.66;10485049;28;20037;-79
2023/03/17 17:50:27;;;;;;;3.33;1.52;;;;;;;2.11;41.11;102247.78;10456015;28;20045;-82
2023/03/17 17:55:32;;;;;;;4.47;1.67;;;;;;;2.06;42.28;102249.34;10476172;28;20043;-81
2023/03/17 18:00:38;;;;;;;7.22;2.10;;;;;;;2.06;41.35;102250.19;10490240;28;20044;-81
2023/03/17 18:05:44;;;;;;;6.63;2.45;;;;;;;2.03;41.22;102250.56;10510056;28;20425;-78
2023/03/17 18:10:47;;;;;;;8.00;2.65;;;;;;;2.00;41.14;102256.34;10512838;28;20056;-81
2023/03/17 18:15:49;;;;;;;6.88;2.40;;;;;;;1.98;41.19;102274.66;10500818;28;20049;-79
2023/03/17 18:20:53;;;;;;;8.70;3.17;;;;;;;2.06;41.54;102277.25;10519406;28;20047;-80
2023/03/17 18:25:59;;;;;;;12.20;3.85;;;;;;;1.99;41.35;102275.50;10497456;28;20044;-84
2023/03/17 18:31:06;;;;;;;9.95;3.60;;;;;;;1.89;41.23;102280.31;10498178;28;20497;-79
2023/03/17 18:36:12;;;;;;;10.13;3.88;;;;;;;1.81;41.92;102292.06;10490426;28;20036;-82
2023/03/17 18:41:15;;;;;;;11.02;4.43;;;;;;;1.71;41.50;102277.94;10489552;28;20518;-82
2023/03/17 18:46:17;;;;;;;14.38;4.75;;;;;;;1.66;41.90;102278.50;10503940;28;20410;-81
2023/03/17 18:51:21;;;;;;;12.02;4.25;;;;;;;1.58;41.49;102277.72;10507137;28;20049;-83
2023/03/17 18:56:27;;;;;;;6.20;3.42;;;;;;;1.50;41.89;102274.06;10501297;28;20044;-82
2023/03/17 19:01:30;;;;;;;8.20;4.50;;;;;;;1.53;42.09;102275.53;10478579;28;20033;-82
2023/03/17 19:06:34;;;;;;;11.07;4.10;;;;;;;1.51;43.13;102278.44;10499629;28;20036;-84
2023/03/17 19:11:38;;;;;;;9.23;4.30;;;;;;;1.38;42.81;102278.19;10501634;28;20497;-82
2023/03/17 19:16:40;;;;;;;11.00;4.00;;;;;;;1.33;43.24;102277.91;10504408;28;20036;-82
2023/03/17 19:21:42;;;;;;;10.90;3.95;;;;;;;1.31;43.84;102277.25;10503491;28;20036;-81
2023/03/17 19:26:44;;;;;;;9.52;3.97;;;;;;;1.17;43.98;102270.75;10475866;28;20041;-80
2023/03/17 19:31:50;;;;;;;8.60;3.95;;;;;;;1.12;44.47;102264.19;10521945;28;20037;-89
2023/03/17 19:36:53;;;;;;;6.88;3.38;;;;;;;1.12;44.49;102267.75;10475592;28;20047;-80
2023/03/17 19:41:56;;;;;;;10.05;3.95;;;;;;;1.04;45.26;102277.75;10506759;28;20036;-84
2023/03/17 19:47:03;;;;;;;9.82;3.80;;;;;;;1.03;45.22;102263.41;10488748;28;20040;-81
2023/03/17 19:52:06;;;;;;;10.90;3.50;;;;;;;1.02;45.88;102260.88;10493645;28;20044;-82
2023/03/17 19:57:08;;;;;;;4.53;2.85;;;;;;;1.12;46.40;102253.38;10483632;28;20036;-84
2023/03/17 20:02:12;;;;;;;6.75;2.58;;;;;;;1.08;46.00;102244.81;10484584;28;20505;-83
2023/03/17 20:07:14;;;;;;;5.43;2.45;;;;;;;1.23;45.66;102250.28;10530814;28;20041;-80
2023/03/17 20:12:16;;;;;;;3.47;2.13;;;;;;;1.10;45.57;102261.69;10515509;28;20056;-81
2023/03/17 20:17:19;;;;;;;5.35;2.22;;;;;;;1.25;45.76;102256.34;10488338;28;20040;-82
2023/03/17 20:22:21;;;;;;;5.97;2.00;;;;;;;1.34;44.90;102255.25;10474294;28;20413;-81
2023/03/17 20:27:23;;;;;;;5.82;1.55;;;;;;;1.17;44.83;102246.41;10512894;28;20036;-81
2023/03/17 20:32:26;;;;;;;8.45;2.08;;;;;;;1.07;44.65;102244.97;10501172;28;20040;-82
2023/03/17 20:37:28;;;;;;;5.45;2.35;;;;;;;1.00;45.48;102230.47;10482415;28;20048;-78
2023/03/17 20:42:30;;;;;;;6.88;1.95;;;;;;;0.97;46.59;102237.09;10493990;28;20044;-78
2023/03/17 20:47:33;;;;;;;4.47;2.10;;;;;;;1.09;46.99;102248.34;10528315;28;20040;-79
2023/03/17 20:52:36;;;;;;;4.22;2.10;;;;;;;1.13;47.45;102255.06;10508493;28;20386;-79
2023/03/17 20:57:40;;;;;;;7.80;2.65;;;;;;;1.15;47.21;102242.22;10505288;28;20052;-79
2023/03/17 21:02:49;;;;;;;4.93;2.47;;;;;;;1.11;48.00;102243.59;10526347;28;20513;-79
2023/03/17 21:07:51;;;;;;;4.80;2.30;;;;;;;1.02;49.20;102250.06;10521723;28;20390;-78
2023/03/17 21:12:53;;;;;;;5.47;2.65;;;;;;;1.27;50.79;102259.72;10526811;28;20350;-79
2023/03/17 21:17:57;;;;;;;7.05;3.00;;;;;;;1.47;49.43;102254.66;10531008;28;20048;-78
2023/03/17 21:22:59;;;;;;;5.05;2.45;;;;;;;1.11;49.97;102257.94;10527771;28;20040;-79
2023/03/17 21:28:03;;;;;;;4.95;2.25;;;;;;;1.04;50.66;102258.84;10505992;28;20043;-79
2023/03/17 21:33:06;;;;;;;6.25;2.63;;;;;;;0.81;51.50;102270.47;10501918;28;20045;-80
2023/03/17 21:38:09;;;;;;;6.53;2.40;;;;;;;0.78;51.53;102269.97;10526707;28;20398;-82
2023/03/17 21:43:13;;;;;;;4.28;2.55;;;;;;;0.78;52.07;102265.41;10525494;28;20041;-82
2023/03/17 21:48:15;;;;;;;5.97;2.60;;;;;;;0.84;52.28;102250.34;10525495;28;20048;-81
2023/03/17 21:53:17;;;;;;;6.05;3.08;;;;;;;0.85;52.37;102260.97;10516475;28;20040;-81
2023/03/17 21:58:20;;;;;;;5.40;3.20;;;;;;;0.80;52.72;102255.25;10524271;28;20047;-81
2023/03/17 22:03:23;;;;;;;7.63;3.85;;;;;;;0.89;52.71;102254.22;10517793;28;20048;-81
2023/03/17 22:08:25;;;;;;;7.35;3.08;;;;;;;0.77;53.08;102263.72;10503537;28;20044;-80
2023/03/17 22:13:27;;;;;;;5.78;3.28;;;;;;;0.74;53.73;102261.38;10495419;28;20045;-80
2023/03/17 22:18:29;;;;;;;4.07;2.58;;;;;;;0.92;54.15;102260.28;10512175;28;20040;-81
2023/03/17 22:23:38;;;;;;;7.00;2.58;;;;;;;0.90;53.48;102263.16;10490534;28;20047;-79
2023/03/17 22:28:41;;;;;;;3.97;2.88;;;;;;;0.84;54.23;102269.25;10523267;28;20055;-80
2023/03/17 22:33:44;;;;;;;12.77;3.13;;;;;;;1.11;54.03;102265.22;10526146;28;20478;-81
2023/03/17 22:38:47;;;;;;;5.65;2.28;;;;;;;1.15;53.51;102270.09;10494829;28;20040;-80
2023/03/17 22:43:49;;;;;;;7.50;2.80;;;;;;;1.18;53.72;102272.44;10528030;28;20044;-81
2023/03/17 22:48:52;;;;;;;6.32;2.80;;;;;;;1.07;53.60;102272.84;10505149;28;20052;-80
2023/03/17 22:53:55;;;;;;;9.50;3.15;;;;;;;1.00;54.39;102281.84;10492869;28;20498;-80
2023/03/17 22:58:57;;;;;;;6.28;2.63;;;;;;;0.92;54.22;102276.50;10505275;28;20117;-80
2023/03/17 23:03:59;;;;;;;5.72;2.78;;;;;;;0.94;54.65;102287.97;10492459;28;20053;-80
2023/03/17 23:09:01;;;;;;;4.68;2.75;;;;;;;0.88;54.68;102282.25;10512015;28;20056;-80
2023/03/17 23:14:04;;;;;;;3.85;2.50;;;;;;;0.83;54.62;102290.03;10514849;28;20044;-81
2023/03/17 23:19:06;;;;;;;7.97;2.30;;;;;;;0.71;54.91;102283.34;10518430;28;20044;-80
2023/03/17 23:24:08;;;;;;;5.32;2.55;;;;;;;0.66;55.13;102287.59;10489279;28;20044;-79
2023/03/17 23:29:11;;;;;;;4.85;2.47;;;;;;;0.72;55.06;102279.63;10526286;28;20044;-80
2023/03/17 23:34:15;;;;;;;3.47;2.35;;;;;;;0.68;55.82;102280.13;10522842;28;20105;-79